Time;durP1;ratioP1;P1;durP2;ratioP2;P2;SDS_P1;SDS_P2;PMS_P1;PMS_P2;Temp;Humidity;BMP_temperature;BMP_pressure;BME280_temperature;BME280_humidity;BME280_pressure;Samples;Min_cycle;Max_cycle;Signal;HPM_P1;HPM_P2
2023/11/28 00:00:13;;;;;;;0.50;0.15;;;;;;;-1.69;54.02;100178.69;5031435;28;20041;-65
2023/11/28 00:02:39;;;;;;;1.50;0.17;;;;;;;-1.69;54.18;100193.22;5026160;28;20767;-64
2023/11/28 00:05:05;;;;;;;4.80;0.47;;;;;;;-1.73;54.64;100186.38;5025672;28;20029;-64
2023/11/28 00:07:33;;;;;;;1.38;0.20;;;;;;;-1.71;55.11;100194.91;5030033;28;20643;-65
2023/11/28 00:10:03;;;;;;;2.47;0.28;;;;;;;-1.52;54.49;100196.63;5023136;28;20029;-64
2023/11/28 00:12:29;;;;;;;4.47;0.28;;;;;;;-1.55;54.74;100196.63;5028189;28;20080;-64
2023/11/28 00:14:55;;;;;;;0.57;0.20;;;;;;;-1.69;55.84;100195.75;5036052;28;20148;-63
2023/11/28 00:17:22;;;;;;;2.85;0.30;;;;;;;-1.72;55.76;100195.78;5031183;28;20068;-64
2023/11/28 00:19:50;;;;;;;0.52;0.30;;;;;;;-1.87;56.12;100207.72;5025683;28;20621;-64
2023/11/28 00:22:15;;;;;;;0.77;0.38;;;;;;;-1.58;55.23;100201.75;5030620;28;20029;-64
2023/11/28 00:24:41;;;;;;;1.90;0.10;;;;;;;-1.65;55.41;100215.41;5031113;28;20286;-64
2023/11/28 00:27:08;;;;;;;1.85;0.20;;;;;;;-1.62;55.83;100217.97;5019993;28;20028;-65
2023/11/28 00:29:33;;;;;;;2.75;0.30;;;;;;;-1.77;56.43;100221.41;5030336;28;20045;-63
2023/11/28 00:32:06;;;;;;;0.82;0.30;;;;;;;-1.63;56.14;100223.97;5006679;28;20043;-63
2023/11/28 00:34:31;;;;;;;1.88;0.20;;;;;;;-1.55;55.88;100216.25;5031699;28;20056;-63
2023/11/28 00:37:00;;;;;;;1.10;0.30;;;;;;;-1.50;55.86;100235.06;5020677;28;20037;-64
2023/11/28 00:39:27;;;;;;;5.22;0.45;;;;;;;-1.65;56.49;100226.50;5029278;28;20041;-64
2023/11/28 00:41:54;;;;;;;3.63;0.22;;;;;;;-1.52;56.15;100232.50;5023976;28;20407;-63
2023/11/28 00:44:19;;;;;;;0.63;0.20;;;;;;;-1.89;57.02;100241.88;5019194;28;20519;-65
2023/11/28 00:46:45;;;;;;;1.13;0.30;;;;;;;-1.57;56.19;100244.47;5028803;28;20044;-63
2023/11/28 00:49:14;;;;;;;2.40;0.60;;;;;;;-1.28;55.85;100244.44;5034774;28;20499;-64
2023/11/28 00:51:43;;;;;;;3.08;0.40;;;;;;;-1.21;55.77;100245.31;5030844;28;20040;-63
2023/11/28 00:54:09;;;;;;;0.95;0.30;;;;;;;-1.59;56.38;100247.03;5022023;28;20064;-65
2023/11/28 00:56:35;;;;;;;1.70;0.50;;;;;;;-1.68;56.45;100247.03;5030710;28;20530;-65
2023/11/28 00:59:00;;;;;;;2.10;0.65;;;;;;;-1.70;56.46;100251.28;5000666;28;20037;-64
2023/11/28 01:01:26;;;;;;;1.15;0.38;;;;;;;-1.84;56.50;100250.44;5030847;28;20032;-63
2023/11/28 01:03:51;;;;;;;1.85;0.63;;;;;;;-1.65;55.62;100252.13;5015423;28;20147;-65
2023/11/28 01:06:17;;;;;;;1.13;0.30;;;;;;;-1.68;55.07;100251.31;5028445;28;20032;-65
2023/11/28 01:08:42;;;;;;;0.90;0.30;;;;;;;-1.76;54.81;100258.97;5024941;28;20075;-64
2023/11/28 01:11:08;;;;;;;0.50;0.20;;;;;;;-1.74;54.99;100258.97;5024753;28;20480;-64
2023/11/28 01:13:33;;;;;;;1.13;0.30;;;;;;;-1.80;55.19;100268.38;5030212;28;20133;-64
2023/11/28 01:15:59;;;;;;;1.33;0.50;;;;;;;-1.68;54.76;100271.81;5023097;28;20029;-65
2023/11/28 01:18:24;;;;;;;1.65;0.20;;;;;;;-1.60;54.49;100263.28;5029283;28;20419;-63
2023/11/28 01:20:50;;;;;;;1.55;0.57;;;;;;;-1.52;54.76;100264.97;5020670;28;20380;-63
2023/11/28 01:23:17;;;;;;;3.45;0.70;;;;;;;-1.63;55.49;100270.09;5025179;28;20043;-64
2023/11/28 01:25:43;;;;;;;3.15;0.30;;;;;;;-1.42;55.21;100272.66;5027999;28;20056;-64
2023/11/28 01:28:09;;;;;;;1.60;0.47;;;;;;;-1.58;55.42;100270.94;5022468;28;21168;-64
2023/11/28 01:30:34;;;;;;;2.17;0.40;;;;;;;-1.45;55.38;100272.66;5029164;28;20043;-64
2023/11/28 01:33:02;;;;;;;1.75;0.63;;;;;;;-1.64;55.45;100283.78;5021577;28;20033;-65
2023/11/28 01:35:28;;;;;;;0.85;0.40;;;;;;;-1.79;55.94;100274.34;5023967;28;20126;-65
2023/11/28 01:37:53;;;;;;;3.85;0.25;;;;;;;-1.54;55.17;100288.03;5019021;28;21013;-65
2023/11/28 01:40:19;;;;;;;2.13;0.52;;;;;;;-1.39;54.67;100280.34;5042115;28;20045;-64
2023/11/28 01:42:46;;;;;;;1.77;0.60;;;;;;;-1.41;55.13;100284.63;5031656;28;20045;-64
2023/11/28 01:45:12;;;;;;;3.70;1.05;;;;;;;-1.22;54.70;100293.16;5026208;28;20510;-64
2023/11/28 01:47:38;;;;;;;4.70;1.15;;;;;;;-1.45;56.16;100295.72;5022051;28;20064;-64
2023/11/28 01:50:04;;;;;;;2.25;1.35;;;;;;;-1.48;56.21;100305.97;5027578;28;20060;-64
2023/11/28 01:52:31;;;;;;;6.85;0.85;;;;;;;-1.39;55.90;100295.72;5032433;28;20029;-63
2023/11/28 01:55:00;;;;;;;3.83;1.13;;;;;;;-1.67;56.41;100312.78;5028014;28;20033;-64
2023/11/28 01:57:29;;;;;;;2.50;0.52;;;;;;;-1.68;56.05;100293.16;5029908;28;20168;-65
2023/11/28 01:59:54;;;;;;;2.25;0.98;;;;;;;-1.54;55.67;100305.13;5024654;28;20115;-64
2023/11/28 02:02:20;;;;;;;2.25;0.77;;;;;;;-1.65;55.73;100307.66;5020951;28;20093;-63
2023/11/28 02:04:47;;;;;;;6.30;0.55;;;;;;;-1.96;56.56;100322.97;5031130;28;20121;-63
2023/11/28 02:07:16;;;;;;;4.45;0.80;;;;;;;-1.61;55.81;100309.38;5027917;28;20039;-63
2023/11/28 02:09:44;;;;;;;1.52;0.70;;;;;;;-1.91;56.54;100321.28;5030124;28;20263;-64
2023/11/28 02:12:09;;;;;;;2.17;0.85;;;;;;;-1.54;56.31;100323.06;5009514;28;20040;-64
2023/11/28 02:14:42;;;;;;;6.00;1.08;;;;;;;-1.91;56.74;100318.75;5030529;28;20055;-65
2023/11/28 02:17:08;;;;;;;10.05;1.20;;;;;;;-1.71;56.27;100328.16;5025738;28;20047;-64
2023/11/28 02:19:34;;;;;;;3.05;1.05;;;;;;;-1.77;56.76;100326.44;5013942;28;20037;-64
2023/11/28 02:22:03;;;;;;;2.28;0.63;;;;;;;-2.06;57.53;100328.94;5026537;28;20561;-65
2023/11/28 02:24:35;;;;;;;5.75;1.27;;;;;;;-1.75;56.37;100337.56;5028837;28;20241;-64
2023/11/28 02:27:01;;;;;;;5.70;1.15;;;;;;;-1.85;56.71;100336.66;5043534;28;20040;-64
2023/11/28 02:29:26;;;;;;;5.32;1.40;;;;;;;-1.84;56.67;100343.50;5030596;28;20079;-64
2023/11/28 02:31:52;;;;;;;3.38;1.45;;;;;;;-1.88;56.36;100344.34;5030642;28;20059;-63
2023/11/28 02:34:17;;;;;;;2.47;1.17;;;;;;;-1.95;56.50;100336.66;5027455;28;20610;-64
2023/11/28 02:36:43;;;;;;;3.85;1.80;;;;;;;-2.22;57.14;100345.94;5033315;28;20060;-64
2023/11/28 02:39:09;;;;;;;2.15;1.05;;;;;;;-2.07;56.93;100348.56;5028376;28;20793;-65
2023/11/28 02:41:36;;;;;;;3.83;1.23;;;;;;;-1.86;56.56;100347.78;5016008;28;21029;-63
2023/11/28 02:44:02;;;;;;;4.35;1.25;;;;;;;-1.75;56.54;100357.22;5025257;28;20037;-63
2023/11/28 02:46:30;;;;;;;4.50;1.50;;;;;;;-1.94;56.45;100351.16;5048142;28;20041;-63
2023/11/28 02:48:55;;;;;;;3.63;1.13;;;;;;;-1.79;56.41;100356.34;5009700;28;20127;-64
2023/11/28 02:51:21;;;;;;;8.70;1.10;;;;;;;-1.88;56.62;100361.44;5030631;28;20641;-65
2023/11/28 02:53:50;;;;;;;3.33;1.35;;;;;;;-2.10;56.98;100375.84;5015487;28;20519;-64
2023/11/28 02:56:16;;;;;;;2.08;0.85;;;;;;;-1.85;56.09;100372.53;5027233;28;20129;-64
2023/11/28 02:58:41;;;;;;;2.83;1.77;;;;;;;-2.10;56.00;100379.25;5031992;28;20664;-65
2023/11/28 03:01:09;;;;;;;2.58;1.27;;;;;;;-1.97;56.20;100372.50;5022238;28;20082;-63
2023/11/28 03:03:35;;;;;;;1.75;1.20;;;;;;;-1.90;55.61;100378.50;5020772;28;20420;-65
2023/11/28 03:06:00;;;;;;;3.75;1.25;;;;;;;-2.11;56.19;100376.69;5016738;28;20058;-63
2023/11/28 03:08:31;;;;;;;2.65;1.00;;;;;;;-1.93;56.00;100373.34;5031890;28;20045;-64
2023/11/28 03:10:59;;;;;;;2.28;1.10;;;;;;;-1.93;56.26;100370.78;5025933;28;20119;-63
2023/11/28 03:13:24;;;;;;;6.82;1.08;;;;;;;-1.89;56.37;100375.94;5029618;28;20040;-63
2023/11/28 03:15:50;;;;;;;1.42;0.90;;;;;;;-1.84;56.30;100376.81;5031371;28;20021;-64
2023/11/28 03:18:15;;;;;;;7.15;1.42;;;;;;;-1.74;56.05;100379.41;5027446;28;20037;-65
2023/11/28 03:20:40;;;;;;;2.92;0.68;;;;;;;-2.02;56.77;100390.41;5030735;28;20052;-63
2023/11/28 03:23:06;;;;;;;1.77;1.00;;;;;;;-1.70;55.88;100383.69;5024649;28;20605;-65
2023/11/28 03:25:32;;;;;;;3.30;0.77;;;;;;;-1.63;55.70;100387.97;5030365;28;20024;-65
2023/11/28 03:27:58;;;;;;;4.47;0.77;;;;;;;-1.57;55.33;100395.69;5026082;28;20496;-65
2023/11/28 03:30:26;;;;;;;4.13;0.88;;;;;;;-1.58;55.70;100399.06;5028646;28;20033;-65
2023/11/28 03:32:52;;;;;;;2.28;1.13;;;;;;;-1.69;55.79;100393.06;5029150;28;20048;-64
2023/11/28 03:35:18;;;;;;;2.75;0.88;;;;;;;-1.73;55.89;100407.59;5025489;28;20076;-64
2023/11/28 03:37:46;;;;;;;2.95;0.93;;;;;;;-1.67;55.94;100399.06;5027349;28;20047;-64
2023/11/28 03:40:12;;;;;;;5.65;0.90;;;;;;;-1.46;55.39;100404.25;5027063;28;20032;-64
2023/11/28 03:42:38;;;;;;;2.03;1.05;;;;;;;-1.45;55.18;100400.81;5012003;28;20036;-63
2023/11/28 03:45:04;;;;;;;4.55;1.17;;;;;;;-1.69;55.60;100404.16;5019658;28;20044;-63
2023/11/28 03:47:30;;;;;;;4.13;2.00;;;;;;;-1.92;56.24;100398.97;5021520;28;20037;-64
2023/11/28 03:49:56;;;;;;;2.47;1.10;;;;;;;-1.88;56.44;100393.03;5037196;28;20041;-64
2023/11/28 03:52:22;;;;;;;4.18;1.70;;;;;;;-1.72;55.86;100393.06;5024621;28;20033;-65
2023/11/28 03:54:47;;;;;;;1.65;1.13;;;;;;;-1.80;56.33;100400.72;5030772;28;20025;-62
2023/11/28 03:57:13;;;;;;;4.90;1.10;;;;;;;-2.00;56.43;100400.63;5024260;28;20527;-64
2023/11/28 03:59:38;;;;;;;2.67;1.33;;;;;;;-1.81;56.40;100410.13;5009933;28;20064;-64
2023/11/28 04:02:05;;;;;;;4.00;1.75;;;;;;;-1.97;56.50;100412.63;5025868;28;20025;-64
2023/11/28 04:04:32;;;;;;;6.07;1.25;;;;;;;-2.05;56.67;100402.34;5006044;28;20033;-64
2023/11/28 04:07:00;;;;;;;2.45;0.90;;;;;;;-1.97;56.58;100413.47;5027091;28;20124;-64
2023/11/28 04:09:28;;;;;;;7.50;1.73;;;;;;;-1.86;55.94;100410.97;5024927;28;20152;-64
2023/11/28 04:11:54;;;;;;;4.57;1.50;;;;;;;-2.02;56.55;100416.03;5029297;28;20389;-63
2023/11/28 04:14:22;;;;;;;1.65;0.68;;;;;;;-1.94;56.41;100418.59;5021894;28;20477;-64
2023/11/28 04:16:48;;;;;;;4.45;0.82;;;;;;;-1.98;56.37;100416.88;5022292;28;20622;-64
2023/11/28 04:19:16;;;;;;;1.63;1.02;;;;;;;-2.06;56.67;100408.31;5025042;28;20128;-63
2023/11/28 04:21:41;;;;;;;5.05;1.58;;;;;;;-1.80;55.88;100413.53;5020425;28;20445;-64
2023/11/28 04:24:07;;;;;;;2.88;0.93;;;;;;;-1.78;55.97;100413.53;5023500;28;20033;-64
2023/11/28 04:26:33;;;;;;;2.22;1.27;;;;;;;-1.71;55.45;100420.41;5019250;28;20130;-64
2023/11/28 04:28:59;;;;;;;3.05;0.77;;;;;;;-1.84;55.83;100422.94;5027122;28;20507;-65
2023/11/28 04:31:27;;;;;;;5.13;1.70;;;;;;;-2.10;56.17;100414.28;5027389;28;20035;-66
2023/11/28 04:33:57;;;;;;;2.63;1.00;;;;;;;-2.13;56.00;100416.81;5025605;28;20106;-64
2023/11/28 04:36:27;;;;;;;3.58;1.70;;;;;;;-1.85;55.76;100423.75;5024798;28;20446;-66
2023/11/28 04:38:52;;;;;;;5.60;1.02;;;;;;;-1.75;55.32;100423.81;5018264;28;20043;-65
2023/11/28 04:41:18;;;;;;;1.80;1.35;;;;;;;-1.86;55.55;100432.31;5023199;28;20723;-64
2023/11/28 04:43:46;;;;;;;2.33;0.77;;;;;;;-1.78;55.45;100428.91;5027857;28;20115;-65
2023/11/28 04:46:12;;;;;;;4.35;1.45;;;;;;;-1.81;55.19;100429.75;5040029;28;20025;-66
2023/11/28 04:48:37;;;;;;;6.35;1.05;;;;;;;-1.70;54.88;100433.22;5016001;28;20055;-66
2023/11/28 04:51:04;;;;;;;4.00;1.27;;;;;;;-1.59;54.71;100431.53;5004467;28;20131;-65
2023/11/28 04:53:30;;;;;;;2.78;1.20;;;;;;;-1.53;54.29;100430.72;5022750;28;20557;-66
2023/11/28 04:55:56;;;;;;;2.40;0.85;;;;;;;-1.73;54.60;100433.22;5028345;28;20145;-66
2023/11/28 04:58:22;;;;;;;1.48;0.65;;;;;;;-1.86;54.47;100431.47;5022972;28;20155;-66
2023/11/28 05:00:50;;;;;;;2.85;0.73;;;;;;;-1.71;54.12;100430.66;5027217;28;20158;-65
2023/11/28 05:03:18;;;;;;;3.53;0.55;;;;;;;-1.88;54.70;100439.13;5036784;28;20056;-65
2023/11/28 05:05:44;;;;;;;4.50;0.82;;;;;;;-1.91;54.80;100428.00;5026521;28;20723;-65
2023/11/28 05:08:13;;;;;;;3.75;1.05;;;;;;;-1.84;54.57;100430.63;5025738;28;20522;-65
2023/11/28 05:10:38;;;;;;;3.75;0.60;;;;;;;-1.71;54.45;100438.31;5017866;28;20036;-64
2023/11/28 05:13:04;;;;;;;1.63;0.50;;;;;;;-1.92;54.70;100432.28;5002740;28;20044;-64
2023/11/28 05:15:32;;;;;;;4.22;0.55;;;;;;;-1.74;54.28;100435.78;5027631;28;20064;-66
2023/11/28 05:17:58;;;;;;;3.35;0.88;;;;;;;-1.70;54.35;100440.91;5028931;28;20040;-66
2023/11/28 05:20:26;;;;;;;3.33;0.68;;;;;;;-1.69;54.07;100434.06;5027520;28;21103;-65
2023/11/28 05:22:52;;;;;;;3.72;1.33;;;;;;;-1.89;54.33;100434.88;5038349;28;20040;-64
2023/11/28 05:25:21;;;;;;;3.42;0.80;;;;;;;-1.96;54.56;100445.91;5026319;28;20189;-65
2023/11/28 05:27:51;;;;;;;5.55;0.80;;;;;;;-1.92;54.53;100447.66;5011959;28;20071;-65
2023/11/28 05:30:17;;;;;;;2.17;0.90;;;;;;;-2.01;54.94;100448.44;5019273;28;20407;-66
2023/11/28 05:32:42;;;;;;;1.70;0.93;;;;;;;-1.94;54.67;100451.06;5031173;28;20041;-66
2023/11/28 05:35:09;;;;;;;2.25;0.90;;;;;;;-1.81;54.14;100460.50;5011237;28;20052;-65
2023/11/28 05:37:34;;;;;;;2.38;0.90;;;;;;;-2.00;54.60;100456.97;5030260;28;20048;-65
2023/11/28 05:40:04;;;;;;;1.73;0.77;;;;;;;-2.07;55.23;100460.38;5030603;28;20110;-64
2023/11/28 05:42:30;;;;;;;4.47;1.08;;;;;;;-1.97;54.76;100464.69;5030288;28;20033;-65
2023/11/28 05:44:56;;;;;;;2.95;0.80;;;;;;;-1.86;54.67;100470.72;5013708;28;20029;-64
2023/11/28 05:47:22;;;;;;;3.15;0.88;;;;;;;-2.05;55.20;100467.22;5025299;28;20035;-65
2023/11/28 05:49:47;;;;;;;2.03;0.85;;;;;;;-1.95;55.08;100475.81;5031489;28;20222;-65
2023/11/28 05:52:13;;;;;;;3.50;1.30;;;;;;;-2.11;54.98;100468.88;5007001;28;20051;-63
2023/11/28 05:54:39;;;;;;;2.17;0.80;;;;;;;-2.04;54.70;100473.22;5003798;28;20499;-64
2023/11/28 05:57:05;;;;;;;2.42;0.93;;;;;;;-1.77;53.80;100466.50;5034274;28;20180;-65
2023/11/28 05:59:34;;;;;;;2.83;0.80;;;;;;;-2.32;54.80;100477.28;5008021;28;20510;-65
2023/11/28 06:02:03;;;;;;;3.03;0.73;;;;;;;-2.23;54.49;100474.78;5028340;28;20029;-63
2023/11/28 06:04:31;;;;;;;2.08;0.95;;;;;;;-2.38;54.82;100473.00;5024571;28;20503;-63
2023/11/28 06:07:00;;;;;;;2.90;0.73;;;;;;;-1.98;53.84;100488.59;5020581;28;20033;-64
2023/11/28 06:09:28;;;;;;;1.77;0.82;;;;;;;-2.16;54.42;100479.09;5006863;28;20073;-63
2023/11/28 06:11:54;;;;;;;1.70;0.55;;;;;;;-2.25;53.92;100484.16;5015806;28;20029;-64
2023/11/28 06:14:22;;;;;;;3.15;0.90;;;;;;;-2.26;54.24;100491.00;5028799;28;20053;-64
2023/11/28 06:16:48;;;;;;;3.58;0.70;;;;;;;-2.25;53.82;100495.25;5031389;28;20033;-64
2023/11/28 06:19:15;;;;;;;1.52;0.57;;;;;;;-2.39;54.06;100499.44;5027876;28;20475;-64
2023/11/28 06:21:46;;;;;;;2.63;0.55;;;;;;;-2.42;53.85;100496.84;5013207;28;20025;-64
2023/11/28 06:24:11;;;;;;;3.00;1.02;;;;;;;-2.42;53.61;100512.22;5009136;28;20029;-62
2023/11/28 06:26:37;;;;;;;1.95;0.60;;;;;;;-2.14;52.55;100507.28;5030826;28;20037;-63
2023/11/28 06:29:02;;;;;;;3.05;0.57;;;;;;;-2.29;52.48;100514.03;5031466;28;20036;-64
2023/11/28 06:31:28;;;;;;;0.77;0.40;;;;;;;-2.54;52.49;100512.09;5026406;28;20032;-64
2023/11/28 06:33:54;;;;;;;1.88;0.65;;;;;;;-2.56;52.65;100518.91;5029751;28;20109;-64
2023/11/28 06:36:21;;;;;;;1.42;0.50;;;;;;;-2.44;52.56;100504.50;5021301;28;20041;-65
2023/11/28 06:38:50;;;;;;;2.03;0.73;;;;;;;-2.43;52.27;100516.44;5030737;28;20037;-65
2023/11/28 06:41:15;;;;;;;0.88;0.32;;;;;;;-2.48;51.99;100524.94;5028748;28;20568;-64
2023/11/28 06:43:41;;;;;;;1.70;1.02;;;;;;;-2.71;52.19;100535.84;5027394;28;20032;-65
2023/11/28 06:46:06;;;;;;;1.45;0.55;;;;;;;-2.50;52.03;100534.31;5018094;28;20067;-64
2023/11/28 06:48:32;;;;;;;4.72;0.90;;;;;;;-2.54;52.09;100542.81;5001423;28;20045;-64
2023/11/28 06:50:57;;;;;;;4.88;0.50;;;;;;;-2.71;52.14;100540.97;5023074;28;20033;-63
2023/11/28 06:53:23;;;;;;;0.88;0.32;;;;;;;-2.48;51.50;100553.09;5026210;28;20439;-64
2023/11/28 06:55:51;;;;;;;2.67;0.43;;;;;;;-2.66;51.72;100559.75;5027173;28;20029;-65
2023/11/28 06:58:16;;;;;;;2.25;0.90;;;;;;;-2.43;51.26;100557.41;5027018;28;20059;-65
2023/11/28 07:00:42;;;;;;;2.72;0.60;;;;;;;-2.40;51.05;100555.72;5029075;28;20491;-64
2023/11/28 07:03:10;;;;;;;7.20;1.05;;;;;;;-2.47;50.56;100565.94;5030323;28;20167;-64
2023/11/28 07:05:36;;;;;;;0.80;0.30;;;;;;;-2.41;50.31;100565.09;5005651;28;20029;-63
2023/11/28 07:08:02;;;;;;;0.80;0.30;;;;;;;-2.45;50.17;100563.34;5030892;28;20032;-64
2023/11/28 07:10:28;;;;;;;3.15;0.40;;;;;;;-2.59;49.93;100575.19;5014141;28;20109;-65
2023/11/28 07:12:54;;;;;;;1.70;0.40;;;;;;;-2.67;49.63;100578.53;5003953;28;20495;-64
2023/11/28 07:15:22;;;;;;;1.85;0.22;;;;;;;-2.56;49.71;100572.63;5013331;28;20060;-64
2023/11/28 07:17:48;;;;;;;0.45;0.20;;;;;;;-2.53;49.46;100580.38;5028457;28;21013;-64
2023/11/28 07:20:14;;;;;;;1.00;0.30;;;;;;;-2.29;49.08;100570.34;5026629;28;20032;-65
2023/11/28 07:22:42;;;;;;;4.18;0.38;;;;;;;-2.32;48.86;100577.13;5018346;28;20049;-65
2023/11/28 07:25:09;;;;;;;0.88;0.17;;;;;;;-2.06;47.93;100578.19;5027869;28;20112;-66
2023/11/28 07:27:35;;;;;;;2.25;0.17;;;;;;;-2.18;48.04;100577.22;5012791;28;20652;-65
2023/11/28 07:30:04;;;;;;;2.00;0.20;;;;;;;-2.14;47.97;100586.66;5029463;28;20039;-65
2023/11/28 07:32:30;;;;;;;1.00;0.50;;;;;;;-2.14;47.64;100578.97;5024464;28;20041;-63
2023/11/28 07:34:56;;;;;;;0.82;0.22;;;;;;;-2.02;47.97;100594.44;5028186;28;20044;-66
2023/11/28 07:37:21;;;;;;;1.42;0.40;;;;;;;-2.06;47.39;100587.59;5023821;28;20446;-65
2023/11/28 07:39:53;;;;;;;5.97;0.45;;;;;;;-1.92;47.74;100591.09;5028766;28;20469;-65
2023/11/28 07:42:21;;;;;;;3.70;0.30;;;;;;;-1.99;47.60;100589.34;5026398;28;20503;-65
2023/11/28 07:44:46;;;;;;;0.95;0.30;;;;;;;-1.99;47.65;100589.34;5027478;28;20057;-65
2023/11/28 07:47:12;;;;;;;1.15;0.10;;;;;;;-1.96;47.75;100588.50;5030130;28;20056;-64
2023/11/28 07:49:37;;;;;;;0.80;0.20;;;;;;;-1.88;47.02;100586.84;5021449;28;20700;-65
2023/11/28 07:52:03;;;;;;;0.70;0.20;;;;;;;-1.93;47.20;100591.94;5024470;28;20895;-63
2023/11/28 07:54:29;;;;;;;0.77;0.20;;;;;;;-2.04;46.98;100596.16;5026042;28;20049;-63
2023/11/28 07:56:57;;;;;;;1.75;0.47;;;;;;;-1.84;46.99;100593.72;5028933;28;20062;-65
2023/11/28 07:59:25;;;;;;;0.47;0.20;;;;;;;-1.90;47.18;100599.66;5024864;28;20057;-63
2023/11/28 08:01:51;;;;;;;0.98;0.28;;;;;;;-1.89;46.67;100603.06;5027305;28;20039;-63
2023/11/28 08:04:17;;;;;;;0.70;0.28;;;;;;;-2.05;47.17;100596.97;5024124;28;20041;-64
2023/11/28 08:06:42;;;;;;;5.85;0.32;;;;;;;-1.85;46.57;100597.97;5027907;28;20037;-64
2023/11/28 08:09:10;;;;;;;1.65;0.17;;;;;;;-1.74;46.86;100599.75;5025364;28;20045;-63
2023/11/28 08:11:36;;;;;;;2.92;0.60;;;;;;;-1.84;46.98;100589.44;5023077;28;20106;-66
2023/11/28 08:14:01;;;;;;;0.70;0.20;;;;;;;-1.74;46.70;100594.63;5030277;28;20063;-65
2023/11/28 08:16:27;;;;;;;1.05;0.30;;;;;;;-1.68;46.67;100592.97;5023741;28;20101;-65
2023/11/28 08:18:54;;;;;;;1.52;0.30;;;;;;;-1.71;46.76;100599.75;5026651;28;20072;-64
2023/11/28 08:21:22;;;;;;;0.52;0.22;;;;;;;-1.84;47.03;100604.81;5031023;28;20044;-64
2023/11/28 08:23:47;;;;;;;0.77;0.20;;;;;;;-1.61;46.23;100614.38;5013978;28;20029;-64
2023/11/28 08:26:14;;;;;;;0.45;0.20;;;;;;;-1.54;46.34;100608.41;5027992;28;20545;-64
2023/11/28 08:28:40;;;;;;;5.00;0.40;;;;;;;-1.55;46.93;100606.72;5000215;28;20083;-65
2023/11/28 08:31:10;;;;;;;5.32;0.70;;;;;;;-1.62;46.82;100610.06;5005187;28;20033;-65
2023/11/28 08:33:36;;;;;;;0.82;0.20;;;;;;;-1.46;46.50;100605.91;5022815;28;20786;-65
2023/11/28 08:36:02;;;;;;;0.93;0.40;;;;;;;-1.30;45.62;100617.09;5025827;28;20043;-65
2023/11/28 08:38:29;;;;;;;1.33;0.30;;;;;;;-1.27;45.33;100617.09;5023327;28;20123;-65
2023/11/28 08:40:56;;;;;;;1.52;0.60;;;;;;;-1.27;45.56;100617.09;5028353;28;20107;-66
2023/11/28 08:43:22;;;;;;;1.77;0.40;;;;;;;-1.11;45.15;100621.44;5021647;28;20037;-64
2023/11/28 08:45:47;;;;;;;2.33;0.70;;;;;;;-1.03;45.13;100616.41;5028671;28;20509;-65
2023/11/28 08:48:12;;;;;;;1.55;0.40;;;;;;;-0.97;45.05;100619.84;5021385;28;20638;-66
2023/11/28 08:50:38;;;;;;;1.73;0.35;;;;;;;-1.17;44.82;100621.44;5022674;28;20599;-64
2023/11/28 08:53:07;;;;;;;1.85;0.30;;;;;;;-1.33;45.05;100617.94;5027506;28;20033;-66
2023/11/28 08:55:33;;;;;;;2.00;0.50;;;;;;;-1.21;44.81;100629.97;5016300;28;20216;-66
2023/11/28 08:57:59;;;;;;;0.52;0.20;;;;;;;-1.26;44.97;100635.06;5027373;28;20063;-65
2023/11/28 09:00:24;;;;;;;0.80;0.30;;;;;;;-1.44;45.33;100627.25;5025096;28;20539;-63
2023/11/28 09:02:51;;;;;;;1.73;0.30;;;;;;;-1.33;44.89;100628.22;5023775;28;20043;-65
2023/11/28 09:05:17;;;;;;;2.83;0.40;;;;;;;-1.29;45.14;100632.47;5026894;28;20025;-65
2023/11/28 09:07:43;;;;;;;1.40;0.50;;;;;;;-1.12;45.12;100631.72;5022466;28;20041;-64
2023/11/28 09:10:11;;;;;;;1.55;0.80;;;;;;;-1.03;45.41;100632.63;5027126;28;20112;-64
2023/11/28 09:12:37;;;;;;;1.05;0.45;;;;;;;-0.95;45.17;100639.50;5022607;28;20558;-65
2023/11/28 09:15:04;;;;;;;1.30;0.60;;;;;;;-0.99;45.36;100642.06;5026218;28;20040;-67
2023/11/28 09:17:29;;;;;;;1.48;0.55;;;;;;;-1.16;45.55;100646.22;5021663;28;20048;-64
2023/11/28 09:19:58;;;;;;;2.13;0.77;;;;;;;-1.07;45.27;100647.97;5025011;28;20522;-66
2023/11/28 09:22:23;;;;;;;5.90;0.50;;;;;;;-1.20;45.73;100644.50;5022152;28;20032;-65
2023/11/28 09:24:49;;;;;;;1.60;0.30;;;;;;;-0.99;45.04;100644.63;5009004;28;20039;-64
2023/11/28 09:27:14;;;;;;;1.90;0.20;;;;;;;-0.91;45.01;100648.94;5023116;28;20733;-65
2023/11/28 09:29:42;;;;;;;1.15;0.30;;;;;;;-0.87;44.79;100653.22;5024374;28;20047;-64
2023/11/28 09:32:12;;;;;;;0.90;0.30;;;;;;;-0.64;44.13;100650.72;5024623;28;20487;-65
2023/11/28 09:34:41;;;;;;;2.55;0.50;;;;;;;-0.33;43.99;100654.22;5022461;28;21148;-65
2023/11/28 09:37:10;;;;;;;1.08;0.50;;;;;;;0.22;42.62;100651.69;5025874;28;20123;-65
2023/11/28 09:39:36;;;;;;;5.45;0.30;;;;;;;0.61;42.01;100655.06;5021350;28;20596;-65
2023/11/28 09:42:06;;;;;;;2.75;0.43;;;;;;;0.27;42.31;100656.81;5023747;28;20044;-65
2023/11/28 09:44:41;;;;;;;3.13;0.82;;;;;;;0.93;41.56;100655.84;5021310;28;20041;-65
2023/11/28 09:47:08;;;;;;;1.25;0.73;;;;;;;1.09;40.36;100653.19;5024603;28;20037;-65
2023/11/28 09:49:41;;;;;;;2.20;0.30;;;;;;;0.94;40.71;100663.53;5023101;28;20610;-65
2023/11/28 09:52:08;;;;;;;1.75;0.40;;;;;;;1.48;41.12;100656.47;5021275;28;20044;-64
2023/11/28 09:54:37;;;;;;;2.53;1.08;;;;;;;1.70;40.16;100656.31;5004140;28;20128;-64
2023/11/28 09:57:04;;;;;;;0.85;0.40;;;;;;;2.31;38.98;100654.97;5025034;28;20179;-65
2023/11/28 09:59:37;;;;;;;1.25;0.30;;;;;;;1.69;39.27;100664.94;5022494;28;20048;-64
2023/11/28 10:02:05;;;;;;;0.70;0.30;;;;;;;1.09;39.58;100658.31;5027630;28;21421;-65
2023/11/28 10:04:36;;;;;;;2.40;0.30;;;;;;;0.90;40.42;100662.69;5023663;28;20037;-65
2023/11/28 10:07:04;;;;;;;1.08;0.35;;;;;;;1.50;40.23;100657.28;5019528;28;20033;-64
2023/11/28 10:09:31;;;;;;;7.63;0.90;;;;;;;1.85;39.39;100653.63;5015358;28;20693;-64
2023/11/28 10:12:04;;;;;;;0.77;0.40;;;;;;;1.71;38.83;100647.75;5027603;28;20060;-65
2023/11/28 10:14:30;;;;;;;0.77;0.40;;;;;;;1.48;39.17;100651.31;5024587;28;20090;-63
2023/11/28 10:16:57;;;;;;;3.05;0.50;;;;;;;1.34;39.54;100665.94;5026079;28;20032;-63
2023/11/28 10:19:25;;;;;;;0.73;0.30;;;;;;;0.89;40.48;100660.13;5018448;28;20048;-62
2023/11/28 10:21:50;;;;;;;2.45;0.40;;;;;;;0.72;40.42;100662.72;5028270;28;20043;-64
2023/11/28 10:24:18;;;;;;;0.80;0.30;;;;;;;0.53;40.09;100661.94;5021112;28;20048;-65
2023/11/28 10:26:45;;;;;;;3.13;0.55;;;;;;;0.22;40.04;100672.25;5023789;28;21309;-64
2023/11/28 10:29:11;;;;;;;1.60;0.30;;;;;;;0.26;40.08;100681.66;5016037;28;20072;-65
2023/11/28 10:31:38;;;;;;;1.25;0.65;;;;;;;0.20;40.92;100679.09;5024610;28;20124;-65
2023/11/28 10:34:08;;;;;;;2.72;0.73;;;;;;;0.40;41.00;100675.66;5026799;28;20053;-64
2023/11/28 10:36:44;;;;;;;1.42;0.35;;;;;;;0.59;39.28;100682.50;5023312;28;20470;-64
2023/11/28 10:39:10;;;;;;;1.02;0.40;;;;;;;0.56;39.74;100681.63;5027833;28;20506;-64
2023/11/28 10:41:40;;;;;;;1.05;0.32;;;;;;;0.68;39.74;100679.06;5007964;28;20048;-65
2023/11/28 10:44:06;;;;;;;3.40;0.40;;;;;;;0.23;40.09;100684.25;5029766;28;20040;-63
2023/11/28 10:46:36;;;;;;;2.80;1.48;;;;;;;-0.16;41.05;100685.94;5027380;28;20505;-64
2023/11/28 10:49:03;;;;;;;1.48;0.30;;;;;;;-0.14;40.56;100684.22;5017534;28;20045;-64
2023/11/28 10:51:31;;;;;;;1.90;0.30;;;;;;;-0.46;41.52;100686.75;5026038;28;20033;-62
2023/11/28 10:54:07;;;;;;;0.88;0.35;;;;;;;-0.56;41.28;100685.00;5026961;28;20510;-64
2023/11/28 10:56:42;;;;;;;3.67;0.60;;;;;;;-0.83;41.58;100680.63;5023971;28;20116;-63
2023/11/28 10:59:13;;;;;;;3.85;0.60;;;;;;;-0.67;41.85;100687.50;5026228;28;20063;-64
2023/11/28 11:01:43;;;;;;;2.25;0.43;;;;;;;-0.45;42.02;100682.44;5025127;28;20039;-62
2023/11/28 11:04:09;;;;;;;1.33;0.30;;;;;;;-0.50;41.99;100685.00;5026651;28;20125;-63
2023/11/28 11:06:37;;;;;;;1.40;0.60;;;;;;;-0.72;42.58;100686.66;5025898;28;20037;-65
2023/11/28 11:09:05;;;;;;;4.32;0.47;;;;;;;-0.83;42.56;100690.88;5023018;28;20049;-65
2023/11/28 11:11:35;;;;;;;1.90;0.40;;;;;;;-0.97;42.74;100689.09;5025587;28;20090;-63
2023/11/28 11:14:22;;;;;;;1.33;0.35;;;;;;;-0.86;41.67;100691.72;5027700;28;20037;-65
2023/11/28 11:17:07;;;;;;;1.58;0.30;;;;;;;-0.87;41.55;100696.84;5028537;28;20059;-65
2023/11/28 11:19:37;;;;;;;2.10;0.50;;;;;;;-1.00;40.85;100689.06;5016955;28;20037;-65
2023/11/28 11:22:09;;;;;;;3.90;0.20;;;;;;;-0.92;40.20;100683.16;5028156;28;20025;-64
2023/11/28 11:24:35;;;;;;;3.10;0.35;;;;;;;-0.84;40.61;100684.03;5016901;28;20033;-64